• Join FlightAware (Why Join?)
  • Login
  • US Flag 
11:36AM EDT


 

Airport Tracker/Info


-or-


 

Live Flight TrackerFlight Track Log ✈ N65537 ✈ 20-Feb-2012 ✈ KLGB - KSMO

Flight Track Log - Related Links

Times and Time Zones

All times are in EST time to prevent confusion due to time zone crossing. See the N65537 flight status page for this flight to view local times or setup timezone preferences in your user account.

Time Position Orientation Groundspeed Altitude Reporting Facility
EST Latitude Longitude Course Direction KTS MPH feet Rate Location/Type
06:55PM 33.8344 -118.1756 269° West  Level FlightAware Approximate
06:56PM 33.8333 -118.2500 270° West 84 97 3,100  Level Southern California TRACON
06:57PM 33.8333 -118.2667 301° West 82 94 3,800 420 Climbing Southern California TRACON
06:58PM 33.8500 -118.3000 337° Northwest 92 106 4,000 60 Climbing Southern California TRACON
06:59PM 33.8833 -118.3167 320° Northwest 97 112 4,000 -60 Level Southern California TRACON
07:00PM 33.9000 -118.3333 320° Northwest 97 112 3,900 -60 Descending Southern California TRACON
07:01PM 33.9167 -118.3500 301° West 93 107 3,900  Level Southern California TRACON
07:02PM 33.9333 -118.3833 320° Northwest 89 102 3,900  Level Southern California TRACON
07:03PM 33.9500 -118.4000 40° Northeast 104 120 3,900  Level Southern California TRACON
07:04PM 33.9667 -118.3833 40° Northeast 81 93 3,900  Level Southern California TRACON
07:05PM 33.9833 -118.3667 40° Northeast 83 96 3,900  Level Southern California TRACON
07:06PM 34.0000 -118.3500 360° North 79 91 4,000  Climbing Southern California TRACON
07:07PM 34.0333 -118.3500 40° Northeast 86 99 3,900 -240 Descending Southern California TRACON
07:08PM 34.0500 -118.3333 360° North 79 91 3,600 -420 Descending Southern California TRACON
07:09PM 34.0667 -118.3333 40° Northeast 82 94 3,100 -360 Descending Southern California TRACON
07:10PM 34.0833 -118.3167 320° Northwest 88 101 2,900 -120 Descending Southern California TRACON
07:11PM 34.1000 -118.3333 220° Southwest 99 114 2,900 -60 Level Southern California TRACON
07:12PM 34.0833 -118.3500 239° Southwest 98 113 2,800 -360 Descending Southern California TRACON
07:13PM 34.0667 -118.3833 228° Southwest 87 100 2,200 -600 Descending Southern California TRACON
07:20PM 33.9597 -118.5262 228° Southwest  Level Estimated